createdAt,value
2018-02-07T12:32:07.764Z,5.49
2018-02-07T12:34:36.094Z,5.54
2018-02-07T12:37:04.422Z,5.60
2018-02-07T12:39:32.737Z,5.75
2018-02-07T12:42:01.299Z,5.07
2018-02-07T12:44:32.010Z,4.48
2018-02-07T12:47:00.340Z,4.97
2018-02-07T12:49:29.022Z,4.75
2018-02-07T12:51:57.454Z,4.65
2018-02-07T12:54:25.964Z,4.74
2018-02-07T12:56:55.031Z,4.65
2018-02-07T12:59:23.356Z,4.84
2018-02-07T13:01:51.937Z,4.92
2018-02-07T13:04:20.230Z,4.66
2018-02-07T13:06:49.013Z,4.73
2018-02-07T13:09:18.069Z,4.74
2018-02-07T13:11:47.312Z,4.83
2018-02-07T13:14:15.681Z,4.77
2018-02-07T13:16:44.028Z,4.89
2018-02-07T13:19:12.361Z,4.92
2018-02-07T13:21:41.470Z,4.73
2018-02-07T13:24:09.901Z,4.84
2018-02-07T13:26:38.217Z,4.82
2018-02-07T13:29:06.698Z,4.73
2018-02-07T13:31:35.253Z,4.45
2018-02-07T13:34:03.612Z,4.76
2018-02-07T13:36:32.152Z,4.88
2018-02-07T13:39:01.257Z,4.77
2018-02-07T13:41:29.995Z,4.90
2018-02-07T13:43:58.323Z,4.90
2018-02-07T13:46:27.448Z,4.77
2018-02-07T13:48:55.783Z,4.92
2018-02-07T13:51:25.109Z,5.04
2018-02-07T13:53:53.420Z,4.99
2018-02-07T13:56:21.771Z,5.00
2018-02-07T13:58:50.081Z,4.80
2018-02-07T14:01:18.407Z,4.55
2018-02-07T14:03:46.739Z,4.72
2018-02-07T14:06:16.874Z,4.75
2018-02-07T14:08:46.004Z,4.71
2018-02-07T14:11:14.351Z,4.68
2018-02-07T14:13:43.454Z,4.71
2018-02-07T14:16:12.797Z,4.61
2018-02-07T14:18:41.290Z,4.61
2018-02-07T14:21:09.623Z,4.66
2018-02-07T14:23:38.103Z,5.33
2018-02-07T14:26:06.612Z,5.68
2018-02-07T14:28:35.005Z,5.52
2018-02-07T14:31:03.312Z,5.01
2018-02-07T14:33:32.443Z,5.04
2018-02-07T14:36:00.747Z,4.74
2018-02-07T14:38:29.918Z,4.68
2018-02-07T14:40:58.290Z,4.56
2018-02-07T14:43:27.477Z,4.42
2018-02-07T14:45:55.839Z,4.42
2018-02-07T14:48:24.923Z,4.38
2018-02-07T14:50:54.419Z,4.33
2018-02-07T14:53:23.659Z,4.24
2018-02-07T14:55:52.140Z,3.98
2018-02-07T14:58:20.575Z,3.99
2018-02-07T15:00:49.762Z,4.18
2018-02-07T15:03:18.089Z,4.03
2018-02-07T15:05:49.500Z,4.06
2018-02-07T15:08:17.967Z,4.01
2018-02-07T15:10:46.295Z,4.11
2018-02-07T15:13:14.776Z,4.09
2018-02-07T15:15:43.068Z,4.09
2018-02-07T15:18:11.554Z,4.14
2018-02-07T15:20:39.918Z,4.01
2018-02-07T15:23:08.552Z,3.85
2018-02-07T15:25:37.223Z,3.88
2018-02-07T15:28:05.522Z,3.83
2018-02-07T15:30:33.938Z,3.76
2018-02-07T15:33:02.246Z,3.92
2018-02-07T15:35:32.403Z,3.87
2018-02-07T15:38:01.964Z,4.04
2018-02-07T15:40:30.382Z,3.78
2018-02-07T15:42:58.745Z,3.78
2018-02-07T15:45:28.034Z,3.74
2018-02-07T15:47:56.377Z,3.69
2018-02-07T15:50:24.690Z,3.62
2018-02-07T15:52:53.836Z,3.79
2018-02-07T15:55:22.463Z,3.62
2018-02-07T15:57:52.347Z,3.58
2018-02-07T16:00:20.725Z,3.73
2018-02-07T16:02:49.516Z,3.75
2018-02-07T16:05:17.878Z,4.14
2018-02-07T16:07:46.196Z,4.16
2018-02-07T16:10:14.536Z,4.22
2018-02-07T16:12:42.852Z,4.41
2018-02-07T16:15:11.401Z,4.03
2018-02-07T16:17:39.879Z,3.52
2018-02-07T16:20:08.215Z,3.46
2018-02-07T16:22:36.560Z,3.50
2018-02-07T16:25:04.908Z,3.28
2018-02-07T16:27:33.233Z,3.22
2018-02-07T16:30:02.321Z,3.30
2018-02-07T16:32:31.438Z,3.41
2018-02-07T16:34:59.765Z,3.43
2018-02-07T16:37:28.117Z,3.06
2018-02-07T16:39:56.425Z,3.05
2018-02-07T16:42:24.995Z,2.82
2018-02-07T16:44:53.566Z,2.82
2018-02-07T16:47:21.890Z,2.75
2018-02-07T16:49:51.271Z,2.59
2018-02-07T16:52:19.830Z,2.40
2018-02-07T16:54:48.344Z,2.35
2018-02-07T16:57:17.728Z,2.32
2018-02-07T16:59:47.672Z,2.45
2018-02-07T17:02:16.218Z,2.35
2018-02-07T17:04:44.623Z,2.51
2018-02-07T17:07:13.808Z,2.46
2018-02-07T17:09:44.074Z,2.40
2018-02-07T17:12:12.417Z,2.59
2018-02-07T17:14:41.613Z,2.56
2018-02-07T17:17:10.872Z,2.68
2018-02-07T17:19:39.612Z,2.57
2018-02-07T17:22:08.044Z,2.72
2018-02-07T17:24:37.179Z,3.01
2018-02-07T17:27:06.275Z,3.04
2018-02-07T17:29:35.607Z,3.04
2018-02-07T17:32:03.996Z,3.13
2018-02-07T17:34:32.414Z,3.02
2018-02-07T17:37:01.435Z,3.22
2018-02-07T17:39:30.009Z,3.14
2018-02-07T17:41:58.842Z,3.05
2018-02-07T17:44:27.542Z,3.09
2018-02-07T17:47:03.097Z,2.98
2018-02-07T17:49:31.989Z,2.98
2018-02-07T17:52:01.014Z,2.83
2018-02-07T17:54:29.787Z,2.62
2018-02-07T17:56:58.670Z,2.65
2018-02-07T17:59:27.138Z,2.95
2018-02-07T18:01:56.808Z,2.69
2018-02-07T18:04:26.422Z,2.52
2018-02-07T18:06:55.088Z,2.38
2018-02-07T18:09:27.508Z,2.46
2018-02-07T18:11:56.399Z,2.39
2018-02-07T18:14:26.043Z,2.20
2018-02-07T18:16:54.823Z,2.12
2018-02-07T18:19:23.801Z,2.20
2018-02-07T18:21:53.330Z,2.19
2018-02-07T18:24:22.321Z,2.15
2018-02-07T18:26:51.121Z,2.14
2018-02-07T18:29:20.731Z,2.09
2018-02-07T18:31:49.463Z,2.06
2018-02-07T18:34:20.558Z,1.95
2018-02-07T18:36:49.112Z,1.92
2018-02-07T18:39:19.618Z,1.98
2018-02-07T18:41:48.508Z,2.12
2018-02-07T18:44:18.361Z,1.77
2018-02-07T18:46:47.251Z,1.79
2018-02-07T18:49:15.918Z,1.77
2018-02-07T18:51:44.720Z,1.80
2018-02-07T18:54:13.536Z,1.70
2018-02-07T18:56:42.095Z,1.82
2018-02-07T18:59:10.855Z,1.73
2018-02-07T19:01:39.908Z,1.68
2018-02-07T19:04:09.362Z,1.71
2018-02-07T19:06:39.033Z,1.63
2018-02-07T19:09:09.063Z,1.54
2018-02-07T19:11:38.442Z,1.71
2018-02-07T19:14:08.366Z,1.74
2018-02-07T19:16:38.232Z,1.53
2018-02-07T19:19:07.625Z,1.54
2018-02-07T19:21:36.626Z,1.57
2018-02-07T19:24:06.328Z,1.55
2018-02-07T19:26:35.128Z,1.49
2018-02-07T19:29:03.782Z,1.54
2018-02-07T19:31:33.144Z,1.54
2018-02-07T19:34:01.775Z,1.68
2018-02-07T19:36:30.389Z,1.52
2018-02-07T19:39:12.487Z,1.43
2018-02-07T19:41:41.229Z,1.50
2018-02-07T19:44:10.543Z,1.50
2018-02-07T19:46:39.496Z,1.50
2018-02-07T19:49:09.450Z,1.43
2018-02-07T19:51:39.513Z,1.49
2018-02-07T19:54:11.579Z,1.41
2018-02-07T19:56:40.959Z,1.48
2018-02-07T19:59:10.539Z,1.69
2018-02-07T20:01:40.591Z,1.61
2018-02-07T20:04:10.369Z,1.62
2018-02-07T20:06:38.926Z,1.65
2018-02-07T20:09:07.718Z,1.58
2018-02-07T20:11:37.544Z,1.62
2018-02-07T20:14:06.264Z,1.42
2018-02-07T20:16:35.090Z,1.42
2018-02-07T20:19:04.709Z,1.51
2018-02-07T20:21:33.295Z,1.54
2018-02-07T20:24:01.816Z,1.50
2018-02-07T20:26:31.214Z,1.45
2018-02-07T20:29:00.988Z,1.44
2018-02-07T20:31:29.657Z,1.46
2018-02-07T20:33:58.316Z,1.52
2018-02-07T20:36:26.923Z,1.41
2018-02-07T20:38:56.744Z,1.42
2018-02-07T20:41:25.741Z,1.45
2018-02-07T20:43:54.650Z,1.39
2018-02-07T20:46:23.457Z,1.27
2018-02-07T20:48:53.345Z,1.35
2018-02-07T20:51:22.096Z,1.40
2018-02-07T20:53:51.336Z,1.44
2018-02-07T20:56:19.970Z,1.42
2018-02-07T20:58:48.767Z,1.43
2018-02-07T21:01:18.309Z,1.42
2018-02-07T21:03:48.033Z,1.35
2018-02-07T21:06:17.121Z,1.46
2018-02-07T21:08:46.799Z,1.58
2018-02-07T21:11:15.664Z,1.46
2018-02-07T21:13:44.124Z,1.31
2018-02-07T21:16:13.652Z,1.29
2018-02-07T21:18:42.797Z,1.31
2018-02-07T21:21:11.365Z,1.25
2018-02-07T21:23:39.774Z,1.23
2018-02-07T21:26:08.301Z,1.40
2018-02-07T21:28:38.354Z,1.32
2018-02-07T21:31:06.726Z,1.27
2018-02-07T21:33:35.054Z,1.30
2018-02-07T21:36:04.636Z,1.53
2018-02-07T21:38:33.973Z,1.49
2018-02-07T21:41:03.056Z,1.49
2018-02-07T21:43:32.194Z,1.27
2018-02-07T21:46:00.566Z,1.38
2018-02-07T21:48:29.048Z,1.32
2018-02-07T21:50:57.385Z,1.40
2018-02-07T21:53:26.701Z,1.30
2018-02-07T21:55:55.163Z,1.38
2018-02-07T21:58:24.347Z,1.32
2018-02-07T22:00:55.103Z,1.34
2018-02-07T22:03:24.217Z,1.22
2018-02-07T22:05:52.654Z,1.33
2018-02-07T22:08:21.142Z,1.35
2018-02-07T22:10:49.551Z,1.21
2018-02-07T22:13:18.128Z,1.10
2018-02-07T22:15:46.467Z,1.14
2018-02-07T22:18:14.793Z,1.09
2018-02-07T22:20:43.173Z,1.15
2018-02-07T22:23:11.524Z,1.21
2018-02-07T22:25:40.658Z,1.28
2018-02-07T22:28:10.712Z,1.18
2018-02-07T22:30:39.817Z,1.20
2018-02-07T22:33:08.916Z,1.28
2018-02-07T22:35:38.122Z,1.22
2018-02-07T22:38:07.208Z,1.20
2018-02-07T22:40:36.456Z,0.90
2018-02-07T22:43:04.789Z,1.03
2018-02-07T22:45:33.957Z,0.99
2018-02-07T22:48:03.071Z,1.02
2018-02-07T22:50:32.223Z,0.88
2018-02-07T22:53:00.817Z,0.92
2018-02-07T22:55:29.223Z,0.97
2018-02-07T22:57:58.391Z,0.83
2018-02-07T23:00:26.906Z,0.89
2018-02-07T23:02:56.046Z,0.98
2018-02-07T23:05:24.398Z,0.98
2018-02-07T23:07:53.550Z,0.89
2018-02-07T23:10:21.966Z,0.73
2018-02-07T23:12:50.303Z,0.77
2018-02-07T23:15:18.675Z,1.02
2018-02-07T23:17:47.024Z,1.02
2018-02-07T23:20:15.369Z,0.92
2018-02-07T23:22:43.716Z,0.81
2018-02-07T23:25:12.801Z,0.75
2018-02-07T23:27:41.218Z,0.74
2018-02-07T23:30:09.553Z,0.70
2018-02-07T23:32:37.959Z,0.74
2018-02-07T23:35:07.051Z,0.70
2018-02-07T23:37:36.433Z,0.80
2018-02-07T23:40:04.727Z,0.74
2018-02-07T23:42:33.819Z,0.82
2018-02-07T23:45:02.165Z,0.81
2018-02-07T23:47:30.534Z,0.59
2018-02-07T23:49:58.840Z,0.85
2018-02-07T23:52:27.650Z,0.63
2018-02-07T23:54:56.078Z,0.64
2018-02-07T23:57:25.193Z,0.71
2018-02-07T23:59:53.509Z,0.65
